Time;durP1;ratioP1;P1;durP2;ratioP2;P2;SDS_P1;SDS_P2;PMS_P1;PMS_P2;Temp;Humidity;BMP_temperature;BMP_pressure;BME280_temperature;BME280_humidity;BME280_pressure;Samples;Min_cycle;Max_cycle;Signal;HPM_P1;HPM_P2
2022/05/26 00:00:13;;;;;;;33.40;30.70;;;;;;;9.63;95.99;98059.33;105659;1282;22547;-85
2022/05/26 00:03:01;;;;;;;30.80;28.20;;;;;;;9.67;95.80;98057.67;105444;1282;25237;-85
2022/05/26 00:05:29;;;;;;;29.80;27.10;;;;;;;9.67;95.69;98063.00;105605;1281;23431;-85
2022/05/26 00:07:57;;;;;;;31.00;28.20;;;;;;;9.69;95.97;98059.36;105627;1282;22703;-86
2022/05/26 00:10:25;;;;;;;30.90;28.10;;;;;;;9.74;96.07;98057.20;105620;1283;22627;-85
2022/05/26 00:12:53;;;;;;;30.30;27.90;;;;;;;9.79;96.07;98058.44;105417;1282;25395;-84
2022/05/26 00:15:21;;;;;;;36.60;33.60;;;;;;;9.79;95.37;98054.08;105645;1282;24270;-84
2022/05/26 00:17:49;;;;;;;33.40;30.50;;;;;;;9.79;96.09;98050.19;105663;1282;22556;-85
2022/05/26 00:20:17;;;;;;;32.80;30.00;;;;;;;9.76;95.31;98045.27;105619;1282;23166;-85
2022/05/26 00:22:44;;;;;;;34.80;31.80;;;;;;;9.75;95.81;98048.67;105471;1282;26648;-85
2022/05/26 00:25:12;;;;;;;35.70;32.60;;;;;;;9.78;96.12;98049.77;107998;1282;22523;-84
2022/05/26 00:27:40;;;;;;;32.20;29.50;;;;;;;9.83;95.89;98048.85;109035;1282;22667;-85
2022/05/26 00:30:09;;;;;;;31.90;29.20;;;;;;;9.86;95.96;98047.02;107267;1282;23942;-86
2022/05/26 00:32:37;;;;;;;34.90;31.90;;;;;;;9.88;96.10;98044.70;105653;1282;22553;-85
2022/05/26 00:35:06;;;;;;;33.50;30.70;;;;;;;9.87;95.68;98044.80;105390;1282;22886;-85
2022/05/26 00:37:35;;;;;;;32.30;29.70;;;;;;;9.85;95.61;98048.34;105673;1282;22571;-85
2022/05/26 00:40:05;;;;;;;31.50;28.90;;;;;;;9.83;95.61;98047.52;105670;1282;23983;-85
2022/05/26 00:42:34;;;;;;;30.80;28.00;;;;;;;9.84;95.95;98050.73;105639;1282;22721;-85
2022/05/26 00:45:03;;;;;;;38.60;35.60;;;;;;;9.85;95.79;98058.02;105634;1282;24272;-86
2022/05/26 00:47:36;;;;;;;32.10;29.20;;;;;;;9.82;95.76;98055.25;105438;1281;24421;-86
2022/05/26 00:50:07;;;;;;;32.60;29.80;;;;;;;9.80;95.67;98054.65;105620;1282;22549;-86
2022/05/26 00:52:43;;;;;;;32.40;29.70;;;;;;;9.73;95.95;98057.85;105693;1282;24382;-85
2022/05/26 00:55:20;;;;;;;31.20;28.60;;;;;;;9.69;96.14;98057.65;105728;1282;24234;-85
2022/05/26 00:58:00;;;;;;;33.50;30.70;;;;;;;9.68;95.73;98055.30;105661;1282;24521;-86
2022/05/26 01:00:33;;;;;;;32.70;29.80;;;;;;;9.66;95.85;98051.66;105431;1282;24229;-86
2022/05/26 01:03:24;;;;;;;31.40;28.70;;;;;;;9.69;96.04;98058.89;105485;1282;24486;-86
2022/05/26 01:05:54;;;;;;;34.40;31.50;;;;;;;9.68;96.06;98057.17;105759;1282;22564;-85
2022/05/26 01:08:30;;;;;;;31.30;28.50;;;;;;;9.66;96.13;98058.23;107620;1282;22581;-84
2022/05/26 01:10:58;;;;;;;30.90;28.20;;;;;;;9.65;96.09;98060.23;105642;1282;24353;-84
2022/05/26 01:13:29;;;;;;;30.00;27.20;;;;;;;9.63;95.59;98062.23;105709;1282;26516;-85
2022/05/26 01:16:09;;;;;;;33.10;30.20;;;;;;;9.59;95.94;98059.27;105733;1282;24230;-88
2022/05/26 01:19:01;;;;;;;31.70;29.10;;;;;;;9.58;96.68;98054.21;105687;1282;25384;-87
2022/05/26 01:21:36;;;;;;;33.60;30.60;;;;;;;9.50;95.90;98055.02;105896;1281;22762;-85
2022/05/26 01:24:36;;;;;;;31.80;29.10;;;;;;;9.44;96.29;98057.03;105914;1282;22619;-86
2022/05/26 01:27:45;;;;;;;30.60;27.70;;;;;;;9.40;96.53;98060.90;105671;1281;24843;-86
2022/05/26 01:30:24;;;;;;;27.00;24.60;;;;;;;9.39;96.72;98070.00;104770;1288;22573;-87
2022/05/26 01:33:13;;;;;;;27.50;25.10;;;;;;;9.41;96.36;98069.65;104901;1288;22670;-87
2022/05/26 01:35:52;;;;;;;27.10;24.90;;;;;;;9.42;96.57;98073.58;104963;1288;23239;-84
2022/05/26 01:38:33;;;;;;;28.50;26.10;;;;;;;9.44;96.46;98067.26;105102;1288;25442;-85
2022/05/26 01:41:19;;;;;;;28.60;26.20;;;;;;;9.42;96.51;98068.02;105031;1288;22626;-86
2022/05/26 01:44:15;;;;;;;25.90;23.60;;;;;;;9.37;96.70;98064.70;105051;1288;22661;-85
2022/05/26 01:46:45;;;;;;;29.60;27.00;;;;;;;9.35;96.69;98065.52;105957;1287;23809;-87
2022/05/26 01:49:28;;;;;;;28.20;25.70;;;;;;;9.31;95.65;98069.81;104873;1288;25609;-87
2022/05/26 01:52:04;;;;;;;36.10;33.20;;;;;;;9.22;95.65;98068.96;104809;1288;22902;-86
2022/05/26 01:54:59;;;;;;;30.40;27.90;;;;;;;9.16;95.92;98071.48;104850;1288;25363;-87
2022/05/26 01:57:49;;;;;;;28.80;26.10;;;;;;;9.13;96.29;98072.81;104838;1289;22559;-87
2022/05/26 02:00:19;;;;;;;30.00;27.40;;;;;;;9.09;96.61;98074.30;104770;1288;24568;-86
2022/05/26 02:02:55;;;;;;;26.70;24.10;;;;;;;9.09;96.52;98075.86;104763;1288;22779;-87
2022/05/26 02:05:28;;;;;;;27.60;25.20;;;;;;;9.12;96.62;98076.80;105446;1282;22535;-85
2022/05/26 02:08:06;;;;;;;26.20;23.80;;;;;;;9.13;96.26;98079.59;105478;1282;24394;-84
2022/05/26 02:10:47;;;;;;;29.60;27.20;;;;;;;9.12;96.03;98078.63;105468;1282;24062;-85
2022/05/26 02:13:21;;;;;;;44.20;40.70;;;;;;;9.11;96.09;98075.89;105478;1283;22635;-86
2022/05/26 02:15:56;;;;;;;27.80;25.30;;;;;;;9.08;96.35;98076.02;105580;1282;22560;-84
2022/05/26 02:18:42;;;;;;;24.50;22.40;;;;;;;9.04;96.80;98079.56;105726;1282;22842;-87
2022/05/26 02:21:17;;;;;;;24.90;22.80;;;;;;;9.05;96.74;98078.70;105526;1282;25615;-86
2022/05/26 02:24:04;;;;;;;26.40;23.90;;;;;;;9.06;96.66;98078.20;109082;1282;22607;-84
2022/05/26 02:26:34;;;;;;;26.70;24.30;;;;;;;9.08;96.48;98071.98;108781;1282;22765;-84
2022/05/26 02:31:53;;;;;;;28.00;25.70;;;;;;;9.15;96.51;98061.23;106391;1282;22609;-86
2022/05/26 02:34:22;;;;;;;27.30;24.90;;;;;;;9.17;96.63;98063.89;106685;1282;24258;-88
2022/05/26 02:36:55;;;;;;;26.70;24.20;;;;;;;9.18;96.77;98058.19;107371;1282;22695;-88
2022/05/26 02:39:22;;;;;;;26.50;24.30;;;;;;;9.21;96.83;98061.49;106989;1282;22599;-88
2022/05/26 02:41:54;;;;;;;24.00;22.00;;;;;;;9.22;96.28;98065.98;106248;1282;22554;-88
2022/05/26 02:44:25;;;;;;;24.40;22.50;;;;;;;9.19;96.03;98069.19;105780;1282;24847;-87
2022/05/26 02:47:18;;;;;;;27.20;24.50;;;;;;;9.17;96.27;98065.67;105687;1282;24233;-86
2022/05/26 02:50:33;;;;;;;28.40;25.90;;;;;;;9.15;96.36;98065.74;105646;1282;22572;-87
2022/05/26 02:53:10;;;;;;;26.60;24.40;;;;;;;9.15;96.63;98068.36;105587;1282;22569;-87
2022/05/26 02:56:02;;;;;;;25.40;23.20;;;;;;;9.15;96.16;98069.45;105594;1282;25379;-88
2022/05/26 02:58:39;;;;;;;23.80;21.70;;;;;;;9.17;96.45;98070.73;105649;1282;22791;-84
2022/05/26 03:01:17;;;;;;;27.50;25.10;;;;;;;9.14;96.21;98073.55;105469;1282;24299;-87
2022/05/26 03:03:50;;;;;;;28.20;26.00;;;;;;;9.08;96.18;98073.83;105308;1282;23171;-86
2022/05/26 03:06:32;;;;;;;26.50;24.40;;;;;;;9.05;96.34;98075.48;105457;1282;24409;-87
2022/05/26 03:09:03;;;;;;;25.90;23.50;;;;;;;9.03;96.42;98075.86;105626;1281;22552;-87
2022/05/26 03:11:48;;;;;;;25.90;23.80;;;;;;;9.04;96.80;98076.77;105667;1282;22832;-88
2022/05/26 03:14:18;;;;;;;29.50;27.00;;;;;;;9.10;96.47;98074.73;105457;1282;24420;-86
2022/05/26 03:16:46;;;;;;;30.70;28.10;;;;;;;9.16;96.58;98076.16;105445;1283;22865;-85
2022/05/26 03:19:15;;;;;;;33.30;30.10;;;;;;;9.18;96.59;98076.58;105747;1282;24265;-84
2022/05/26 03:21:43;;;;;;;32.00;29.20;;;;;;;9.16;96.74;98076.32;105583;1283;23169;-85
2022/05/26 03:24:12;;;;;;;27.30;25.10;;;;;;;9.13;96.37;98079.09;105613;1282;22878;-85
2022/05/26 03:26:40;;;;;;;28.80;26.30;;;;;;;9.15;96.54;98079.20;105640;1282;22887;-86
2022/05/26 03:29:08;;;;;;;31.20;28.70;;;;;;;9.20;96.90;98073.70;105555;1282;22648;-85
2022/05/26 03:31:36;;;;;;;31.30;28.40;;;;;;;9.22;96.35;98077.88;105561;1282;22566;-85
2022/05/26 03:42:24;;;;;;;28.00;25.80;;;;;;;9.19;96.18;98083.45;105644;1282;22553;-85
2022/05/26 03:44:52;;;;;;;27.40;25.10;;;;;;;9.22;96.61;98084.11;105697;1282;22573;-85
2022/05/26 03:47:20;;;;;;;27.50;25.20;;;;;;;9.26;96.25;98080.90;105416;1282;22890;-85
2022/05/26 03:49:49;;;;;;;27.10;24.60;;;;;;;9.33;96.80;98081.15;105707;1282;22562;-85
2022/05/26 03:52:17;;;;;;;28.10;25.50;;;;;;;9.41;96.61;98086.55;105485;1282;25616;-85
2022/05/26 03:54:45;;;;;;;25.60;23.40;;;;;;;9.47;96.51;98085.93;105615;1282;22555;-85
2022/05/26 03:57:13;;;;;;;25.80;23.60;;;;;;;9.52;96.43;98085.17;105630;1283;22668;-86
2022/05/26 03:59:41;;;;;;;25.30;23.10;;;;;;;9.53;96.22;98087.59;105418;1282;24227;-86
2022/05/26 04:02:09;;;;;;;22.00;19.90;;;;;;;9.58;96.08;98088.17;105675;1282;22570;-86
2022/05/26 04:04:37;;;;;;;20.20;17.50;;;;;;;9.62;96.59;98093.34;105506;1282;25667;-85
2022/05/26 04:07:05;;;;;;;19.10;17.50;;;;;;;9.70;96.47;98090.66;105504;1282;22540;-86
2022/05/26 04:09:33;;;;;;;20.50;18.80;;;;;;;9.81;96.52;98099.31;105636;1282;23174;-86
2022/05/26 04:12:01;;;;;;;17.80;16.20;;;;;;;9.88;96.62;98096.85;105443;1282;25523;-86
2022/05/26 04:14:31;;;;;;;19.50;17.80;;;;;;;9.98;96.87;98096.08;105608;1282;25434;-87
2022/05/26 04:17:00;;;;;;;21.00;19.00;;;;;;;10.09;96.90;98087.73;105638;1281;24205;-87
2022/05/26 04:19:28;;;;;;;23.80;21.50;;;;;;;10.18;96.66;98089.71;105440;1282;25604;-86
2022/05/26 04:24:47;;;;;;;19.60;18.00;;;;;;;10.29;96.20;98086.83;105620;1282;24301;-86
2022/05/26 04:27:18;;;;;;;18.40;16.50;;;;;;;10.31;95.99;98092.73;105628;1282;22554;-86
2022/05/26 04:29:46;;;;;;;16.70;15.20;;;;;;;10.31;96.07;98092.58;105711;1282;25365;-88
2022/05/26 04:32:15;;;;;;;17.90;15.00;;;;;;;10.31;95.96;98090.83;105529;1283;24413;-86
2022/05/26 04:34:45;;;;;;;17.30;15.80;;;;;;;10.36;96.43;98091.80;105648;1282;22677;-85
2022/05/26 04:37:17;;;;;;;17.70;16.10;;;;;;;10.42;96.15;98084.92;105763;1282;22561;-86
2022/05/26 04:39:46;;;;;;;17.10;15.40;;;;;;;10.54;96.67;98089.64;105426;1282;25419;-87
2022/05/26 04:42:14;;;;;;;16.30;14.60;;;;;;;10.65;96.42;98088.61;105479;1282;22561;-86
2022/05/26 04:44:44;;;;;;;17.20;15.60;;;;;;;10.74;96.07;98089.05;105695;1282;24016;-86
2022/05/26 04:47:13;;;;;;;18.20;16.70;;;;;;;10.83;96.36;98084.47;105677;1283;25340;-85
2022/05/26 04:49:41;;;;;;;19.60;17.80;;;;;;;10.93;96.20;98088.64;105409;1282;22567;-86
2022/05/26 04:52:16;;;;;;;17.30;15.70;;;;;;;11.03;96.52;98087.77;105678;1282;23282;-86
2022/05/26 04:54:46;;;;;;;17.70;16.00;;;;;;;11.15;96.29;98083.22;105556;1282;23106;-86
2022/05/26 04:57:17;;;;;;;19.20;17.50;;;;;;;11.25;96.10;98087.19;105751;1282;22556;-85
2022/05/26 04:59:45;;;;;;;23.50;21.40;;;;;;;11.36;95.95;98084.88;105354;1283;22633;-85
2022/05/26 05:02:16;;;;;;;22.70;20.50;;;;;;;11.44;95.80;98084.88;105679;1282;22704;-87
2022/05/26 05:04:48;;;;;;;21.00;18.80;;;;;;;11.53;95.53;98083.85;105634;1282;22694;-87
2022/05/26 05:07:18;;;;;;;22.90;20.70;;;;;;;11.62;95.41;98085.23;105804;1283;26024;-88
2022/05/26 05:09:47;;;;;;;22.90;20.60;;;;;;;11.70;94.93;98087.14;105453;1283;25597;-87
2022/05/26 05:12:20;;;;;;;25.00;22.90;;;;;;;11.77;95.11;98090.08;105463;1282;22728;-88
2022/05/26 05:14:50;;;;;;;24.70;22.60;;;;;;;11.83;95.23;98085.92;105439;1283;22569;-89
2022/05/26 05:17:20;;;;;;;23.50;21.30;;;;;;;11.97;94.99;98096.75;105697;1282;24297;-83
2022/05/26 05:19:49;;;;;;;24.70;22.50;;;;;;;12.04;94.04;98093.30;105857;1282;22768;-85
2022/05/26 05:22:43;;;;;;;30.70;27.80;;;;;;;12.14;94.49;98093.68;105628;1282;25381;-86
2022/05/26 05:25:16;;;;;;;27.60;25.20;;;;;;;12.24;93.73;98095.68;105666;1282;25235;-85
2022/05/26 05:28:00;;;;;;;24.10;21.70;;;;;;;12.27;92.05;98101.17;105818;1282;25706;-86
2022/05/26 05:30:46;;;;;;;27.00;24.60;;;;;;;12.32;92.23;98103.17;105481;1282;22888;-85
2022/05/26 05:33:23;;;;;;;25.70;23.20;;;;;;;12.43;91.95;98103.14;105767;1282;23775;-86
2022/05/26 05:35:59;;;;;;;22.50;20.30;;;;;;;12.53;92.57;98107.84;105679;1282;24773;-86
2022/05/26 05:38:27;;;;;;;21.80;19.80;;;;;;;12.63;91.88;98106.09;105711;1282;22611;-85
2022/05/26 05:40:55;;;;;;;18.20;16.30;;;;;;;12.69;90.54;98105.55;105464;1282;25434;-85
2022/05/26 05:43:23;;;;;;;17.80;16.10;;;;;;;12.77;90.65;98105.70;107691;1282;25323;-85
2022/05/26 05:45:51;;;;;;;17.80;16.20;;;;;;;12.86;90.21;98103.15;107235;1282;22563;-86
2022/05/26 05:48:21;;;;;;;15.60;14.20;;;;;;;12.93;90.16;98097.63;106139;1282;22574;-86
2022/05/26 05:50:49;;;;;;;18.20;16.40;;;;;;;13.03;90.49;98094.72;105464;1282;22572;-86
2022/05/26 05:53:18;;;;;;;28.10;17.90;;;;;;;13.16;89.79;98091.60;105740;1282;25356;-86
2022/05/26 05:55:46;;;;;;;19.00;15.90;;;;;;;13.28;89.05;98099.02;105804;1282;22626;-86
2022/05/26 05:58:15;;;;;;;18.20;14.90;;;;;;;13.39;88.22;98105.50;105640;1282;24358;-87
2022/05/26 06:00:43;;;;;;;13.40;10.40;;;;;;;13.48;88.65;98096.38;105621;1283;22627;-85
2022/05/26 06:03:11;;;;;;;14.80;10.50;;;;;;;13.62;88.57;98104.16;105431;1282;22604;-84
2022/05/26 06:05:39;;;;;;;11.20;9.00;;;;;;;13.75;88.99;98101.21;105626;1282;24166;-83
2022/05/26 06:08:07;;;;;;;12.90;8.60;;;;;;;13.85;87.44;98100.54;105590;1283;22660;-86
2022/05/26 06:10:35;;;;;;;13.30;10.20;;;;;;;13.94;86.95;98097.36;105623;1283;26707;-84
2022/05/26 06:13:03;;;;;;;11.90;8.70;;;;;;;14.01;86.72;98100.44;105429;1282;24219;-85
2022/05/26 06:15:33;;;;;;;14.40;9.80;;;;;;;14.08;86.27;98096.02;105561;1283;25458;-83
2022/05/26 06:18:01;;;;;;;13.00;9.10;;;;;;;14.14;86.33;98098.39;105593;1281;24289;-83
2022/05/26 06:20:29;;;;;;;13.10;9.80;;;;;;;14.19;85.59;98102.41;105698;1282;23687;-83
2022/05/26 06:22:57;;;;;;;13.00;10.00;;;;;;;14.24;86.06;98097.16;105665;1282;24245;-82
2022/05/26 06:25:25;;;;;;;16.50;9.30;;;;;;;14.36;86.72;98098.70;105706;1282;22723;-84
2022/05/26 06:30:40;;;;;;;37.30;22.20;;;;;;;14.65;86.19;98100.10;105587;1283;24438;-84
2022/05/26 06:38:45;;;;;;;15.50;7.30;;;;;;;15.04;84.23;98115.56;105624;1282;22580;-85
2022/05/26 06:44:11;;;;;;;14.20;8.20;;;;;;;15.17;83.11;98107.58;105741;1281;22573;-85
2022/05/26 06:46:38;;;;;;;15.20;7.40;;;;;;;15.24;82.35;98114.56;105750;1281;22622;-85
2022/05/26 06:49:06;;;;;;;12.20;7.30;;;;;;;15.33;82.05;98107.88;105749;1281;22556;-85
2022/05/26 06:51:36;;;;;;;8.70;6.10;;;;;;;15.43;80.77;98107.43;105774;1281;23212;-86
2022/05/26 06:54:05;;;;;;;6.70;5.50;;;;;;;15.47;79.77;98105.72;105823;1281;22569;-86
2022/05/26 06:56:32;;;;;;;8.90;5.40;;;;;;;15.48;78.83;98103.36;105779;1281;22541;-86
2022/05/26 06:59:00;;;;;;;8.80;4.60;;;;;;;15.58;80.21;98105.16;105791;1281;22920;-85
2022/05/26 07:01:29;;;;;;;7.30;5.50;;;;;;;15.73;79.88;98104.65;105763;1281;24268;-84
2022/05/26 07:03:57;;;;;;;9.50;6.80;;;;;;;15.88;78.94;98100.80;105704;1281;22556;-85
2022/05/26 07:06:27;;;;;;;9.70;5.70;;;;;;;16.05;79.43;98099.74;105781;1281;24229;-85
2022/05/26 07:08:55;;;;;;;7.70;6.00;;;;;;;16.12;76.97;98103.44;105841;1281;24229;-84
2022/05/26 07:11:24;;;;;;;7.50;4.90;;;;;;;16.09;76.12;98106.20;105885;1281;23079;-84
2022/05/26 07:13:52;;;;;;;6.50;5.30;;;;;;;16.07;75.05;98110.56;105619;1284;22582;-83
2022/05/26 07:16:20;;;;;;;8.60;5.30;;;;;;;16.09;74.84;98112.67;105759;1281;23937;-84
2022/05/26 07:18:50;;;;;;;8.50;5.20;;;;;;;16.23;74.93;98111.08;105856;1281;22878;-84
2022/05/26 07:21:20;;;;;;;7.00;5.80;;;;;;;16.32;74.61;98112.70;105890;1281;22535;-81
2022/05/26 07:23:48;;;;;;;6.30;4.70;;;;;;;16.43;74.22;98116.27;106150;1281;22613;-82
2022/05/26 07:26:17;;;;;;;7.50;5.30;;;;;;;16.51;72.70;98119.73;106279;1281;22891;-83
2022/05/26 07:28:45;;;;;;;6.20;4.80;;;;;;;16.54;71.84;98116.98;106800;1281;22936;-82
2022/05/26 07:31:14;;;;;;;9.50;5.30;;;;;;;16.59;72.78;98112.11;107047;1281;22546;-83
2022/05/26 07:33:42;;;;;;;6.50;5.00;;;;;;;16.75;73.21;98111.08;106993;1281;22669;-84
2022/05/26 07:41:16;;;;;;;10.00;5.40;;;;;;;16.88;73.63;98112.47;106346;1281;24333;-83
2022/05/26 07:41:48;;;;;;;7.60;4.70;;;;;;;17.00;72.31;98120.30;106196;1283;24251;-84
2022/05/26 07:44:17;;;;;;;7.60;5.50;;;;;;;17.12;70.97;98120.77;105701;1281;24474;-84
2022/05/26 07:46:45;;;;;;;12.80;5.20;;;;;;;17.29;70.89;98124.95;105730;1281;25451;-84
2022/05/26 07:49:12;;;;;;;6.10;5.00;;;;;;;17.44;69.97;98128.50;105735;1281;22632;-83
2022/05/26 07:51:40;;;;;;;11.90;5.00;;;;;;;17.51;69.77;98131.05;105684;1281;22538;-84
2022/05/26 07:54:08;;;;;;;5.50;4.50;;;;;;;17.57;69.67;98122.45;105665;1281;24118;-84
2022/05/26 07:56:37;;;;;;;8.70;5.40;;;;;;;17.64;69.16;98125.64;105621;1281;24438;-83
2022/05/26 07:59:07;;;;;;;6.20;5.00;;;;;;;17.69;67.74;98130.04;105587;1283;22622;-83
2022/05/26 08:01:36;;;;;;;7.10;5.00;;;;;;;17.77;68.39;98130.45;105605;1281;24536;-82
2022/05/26 08:04:07;;;;;;;7.80;4.80;;;;;;;17.83;65.29;98135.31;105757;1281;24489;-83
2022/05/26 08:06:35;;;;;;;8.20;5.30;;;;;;;17.79;65.18;98138.92;105538;1283;22572;-83
2022/05/26 08:09:04;;;;;;;8.20;4.30;;;;;;;17.77;64.45;98137.96;105745;1281;24228;-83
2022/05/26 08:11:31;;;;;;;8.70;4.40;;;;;;;17.83;64.55;98138.82;105726;1280;22558;-82
2022/05/26 08:13:59;;;;;;;7.20;4.90;;;;;;;17.90;63.70;98142.17;105684;1281;23318;-83
2022/05/26 08:16:27;;;;;;;15.00;5.70;;;;;;;17.94;63.82;98142.35;105735;1281;25419;-82
2022/05/26 08:18:55;;;;;;;8.50;5.00;;;;;;;17.96;62.63;98143.23;105716;1281;25260;-84
2022/05/26 08:21:23;;;;;;;9.80;4.60;;;;;;;17.98;62.24;98140.23;105798;1281;22651;-83
2022/05/26 08:23:53;;;;;;;8.10;5.30;;;;;;;18.00;61.85;98138.84;107016;1281;22709;-82
2022/05/26 08:26:21;;;;;;;7.20;3.80;;;;;;;18.06;61.44;98137.83;108399;1281;22597;-81
2022/05/26 08:28:49;;;;;;;7.60;4.70;;;;;;;18.17;62.16;98134.50;108641;1281;22927;-81
2022/05/26 08:31:18;;;;;;;9.90;5.80;;;;;;;18.31;62.41;98133.46;106152;1281;23006;-83
2022/05/26 08:33:46;;;;;;;8.60;5.50;;;;;;;18.38;61.50;98133.44;105740;1281;22607;-82
2022/05/26 08:36:20;;;;;;;10.30;5.90;;;;;;;18.49;61.32;98129.92;105724;1281;25287;-83
2022/05/26 08:38:48;;;;;;;;;;;;;;;18.60;60.99;98130.96;106060;1281;22816;-84
2022/05/26 08:41:27;;;;;;;11.10;6.00;;;;;;;18.66;59.66;98129.00;105878;1281;22569;-83
2022/05/26 08:44:00;;;;;;;16.00;8.60;;;;;;;18.70;60.10;98124.15;105805;1281;24434;-84
2022/05/26 08:46:37;;;;;;;12.60;4.80;;;;;;;18.71;58.80;98127.07;105879;1281;22760;-84
2022/05/26 08:49:08;;;;;;;10.70;5.40;;;;;;;18.74;58.13;98130.27;105752;1281;24542;-83
2022/05/26 08:52:10;;;;;;;10.60;5.80;;;;;;;18.82;57.15;98132.80;105818;1281;22795;-83
2022/05/26 08:54:51;;;;;;;9.70;4.10;;;;;;;18.96;56.83;98130.45;105450;1285;24323;-83
2022/05/26 08:57:27;;;;;;;6.50;3.30;;;;;;;19.01;54.96;98129.23;105808;1281;23075;-83
2022/05/26 08:59:55;;;;;;;8.10;3.90;;;;;;;19.06;55.30;98127.27;105826;1281;22551;-84
2022/05/26 09:02:37;;;;;;;15.00;3.50;;;;;;;19.14;54.21;98124.89;105747;1281;22681;-84
2022/05/26 09:05:13;;;;;;;7.70;4.00;;;;;;;19.16;53.93;98128.70;105763;1281;22660;-83
2022/05/26 09:13:46;;;;;;;10.80;4.60;;;;;;;19.14;53.17;98132.00;105693;1281;22557;-82
2022/05/26 09:16:14;;;;;;;4.80;3.50;;;;;;;19.13;53.28;98132.53;105894;1281;22819;-83
2022/05/26 09:18:44;;;;;;;9.70;4.40;;;;;;;19.19;51.88;98129.59;105928;1281;22720;-84
2022/05/26 09:21:23;;;;;;;11.60;6.00;;;;;;;19.29;53.33;98123.58;105734;1283;22734;-81
2022/05/26 09:23:53;;;;;;;11.30;4.40;;;;;;;19.40;52.33;98127.85;106148;1281;24231;-82
2022/05/26 09:26:27;;;;;;;10.50;4.90;;;;;;;19.34;51.72;98133.95;105771;1281;26663;-82
2022/05/26 09:29:07;;;;;;;10.50;3.70;;;;;;;19.25;49.93;98135.05;105667;1281;24766;-83
2022/05/26 09:31:44;;;;;;;5.20;3.10;;;;;;;19.23;49.82;98119.67;105875;1281;22706;-83
2022/05/26 09:34:19;;;;;;;9.20;4.00;;;;;;;19.25;49.31;98119.90;105560;1281;24386;-82
2022/05/26 09:36:52;;;;;;;7.20;2.90;;;;;;;19.38;49.36;98124.61;105445;1283;24085;-80
2022/05/26 09:39:24;;;;;;;6.40;3.60;;;;;;;19.64;47.98;98123.71;105712;1284;22716;-81
2022/05/26 09:41:55;;;;;;;12.50;5.90;;;;;;;19.63;48.13;98116.09;105904;1284;22568;-83
2022/05/26 09:44:58;;;;;;;4.30;2.70;;;;;;;19.59;47.92;98122.86;105751;1283;22667;-82
2022/05/26 09:47:46;;;;;;;10.80;5.30;;;;;;;19.60;49.19;98109.31;104833;1287;23188;-83
2022/05/26 09:50:40;;;;;;;9.70;5.70;;;;;;;19.64;49.01;98117.21;105102;1287;22714;-81
2022/05/26 09:53:11;;;;;;;11.30;4.80;;;;;;;19.42;49.46;98125.96;105193;1287;25466;-83
2022/05/26 09:55:45;;;;;;;11.60;5.70;;;;;;;19.19;48.83;98128.48;105327;1287;22747;-83
2022/05/26 09:58:34;;;;;;;7.40;3.80;;;;;;;18.92;49.47;98126.05;105161;1287;22574;-82
2022/05/26 10:01:12;;;;;;;14.80;7.00;;;;;;;18.75;50.19;98132.98;104926;1287;23258;-83
2022/05/26 10:03:55;;;;;;;11.90;6.00;;;;;;;18.71;50.56;98124.80;105124;1287;23038;-81
2022/05/26 10:06:30;;;;;;;16.50;7.30;;;;;;;18.71;51.05;98122.54;105230;1287;23091;-81
2022/05/26 10:09:27;;;;;;;13.50;6.70;;;;;;;18.72;51.43;98120.16;105152;1287;25462;-82
2022/05/26 10:12:17;;;;;;;10.70;4.60;;;;;;;18.73;51.70;98125.42;105168;1287;24447;-81
2022/05/26 10:15:15;;;;;;;12.40;6.00;;;;;;;18.74;51.93;98125.23;104862;1287;24358;-81
2022/05/26 10:17:56;;;;;;;7.50;4.30;;;;;;;18.77;51.82;98119.54;104863;1287;22573;-81
2022/05/26 10:20:32;;;;;;;24.50;11.90;;;;;;;18.78;52.11;98118.16;104789;1287;239903;-82
2022/05/26 10:23:34;;;;;;;20.60;11.90;;;;;;;18.86;51.72;98118.46;104982;1285;22624;-81
2022/05/26 10:26:20;;;;;;;19.30;12.10;;;;;;;18.83;51.77;98114.73;105599;1281;22580;-81
2022/05/26 10:29:16;;;;;;;30.60;16.50;;;;;;;18.84;51.59;98114.19;105948;1281;22877;-80
2022/05/26 10:32:14;;;;;;;29.00;16.00;;;;;;;18.86;51.88;98122.35;105510;1281;24253;-81
2022/05/26 10:35:18;;;;;;;13.50;6.90;;;;;;;18.92;51.20;98123.64;105480;1284;22545;-81
2022/05/26 10:38:22;;;;;;;7.90;3.60;;;;;;;18.98;50.69;98126.84;105454;1284;22700;-81
2022/05/26 10:41:11;;;;;;;4.60;2.60;;;;;;;19.04;49.85;98128.40;105161;1284;22566;-82
2022/05/26 10:44:02;;;;;;;5.50;2.30;;;;;;;19.07;47.91;98125.50;105616;1284;22709;-83
2022/05/26 10:46:37;;;;;;;11.00;2.70;;;;;;;19.23;48.03;98121.02;105644;1284;22553;-81
2022/05/26 10:49:23;;;;;;;7.80;3.60;;;;;;;19.44;47.30;98120.48;105526;1284;26643;-83
2022/05/26 10:52:07;;;;;;;7.40;2.50;;;;;;;19.65;46.49;98120.63;105590;1284;22556;-83
2022/05/26 10:54:39;;;;;;;6.40;2.40;;;;;;;19.71;45.73;98113.29;105715;1284;24442;-81
2022/05/26 10:57:17;;;;;;;7.00;2.30;;;;;;;19.79;45.88;98120.81;105641;1284;22554;-81
2022/05/26 10:59:59;;;;;;;5.50;2.30;;;;;;;19.74;45.07;98127.67;105603;1284;22708;-83
2022/05/26 11:02:32;;;;;;;9.20;2.20;;;;;;;19.59;44.58;98125.93;105499;1284;25351;-81
2022/05/26 11:05:08;;;;;;;7.40;2.50;;;;;;;19.39;44.46;98128.77;105550;1284;23629;-82
2022/05/26 11:07:39;;;;;;;5.20;2.20;;;;;;;19.23;44.44;98124.94;105624;1284;22978;-82
2022/05/26 11:10:16;;;;;;;4.30;2.30;;;;;;;19.16;44.51;98133.23;105228;1284;25372;-82
2022/05/26 11:12:56;;;;;;;6.40;2.50;;;;;;;19.15;44.51;98127.77;105853;1281;24288;-82
2022/05/26 11:18:35;;;;;;;8.00;2.10;;;;;;;19.70;44.53;98123.23;105701;1281;23357;-81
2022/05/26 11:21:04;;;;;;;8.40;2.20;;;;;;;19.96;43.67;98111.52;105520;1281;24412;-83
2022/05/26 11:23:38;;;;;;;5.30;2.10;;;;;;;20.18;42.97;98113.91;105563;1281;22705;-82
2022/05/26 11:26:20;;;;;;;6.50;2.00;;;;;;;20.33;41.97;98119.02;105705;1282;25367;-82
2022/05/26 11:29:09;;;;;;;8.10;2.30;;;;;;;20.53;41.24;98117.33;105815;1283;22921;-82
2022/05/26 11:37:39;;;;;;;3.40;2.20;;;;;;;20.39;41.48;98107.17;105931;1283;25344;-82
2022/05/26 11:40:11;;;;;;;7.10;2.70;;;;;;;20.26;41.03;98117.52;105768;1283;27221;-88
2022/05/26 11:42:45;;;;;;;7.40;2.20;;;;;;;20.06;40.86;98121.77;106210;1282;22714;-89
2022/05/26 11:45:13;;;;;;;;;;;;;;;19.91;41.24;98111.88;106020;1282;22549;-88
2022/05/26 11:48:03;;;;;;;11.00;2.80;;;;;;;19.82;41.46;98105.96;106005;1282;22559;-84
2022/05/26 11:50:58;;;;;;;6.00;2.00;;;;;;;19.81;41.16;98126.65;105904;1282;23024;-87
2022/05/26 11:53:38;;;;;;;7.80;2.10;;;;;;;19.80;41.71;98117.56;105919;1282;22776;-84
2022/05/26 11:56:28;;;;;;;5.60;2.10;;;;;;;19.92;41.77;98115.13;105988;1282;24948;-86
2022/05/26 11:59:34;;;;;;;4.60;2.40;;;;;;;20.00;41.88;98111.77;106068;1282;22601;-87
2022/05/26 12:02:08;;;;;;;5.40;2.10;;;;;;;20.01;42.18;98112.66;106118;1282;22929;-87
2022/05/26 12:04:39;;;;;;;10.00;2.70;;;;;;;20.02;41.82;98110.80;106363;1283;24901;-87
2022/05/26 12:07:20;;;;;;;7.50;2.40;;;;;;;19.92;42.11;98108.86;106326;1282;24115;-88
2022/05/26 12:09:54;;;;;;;8.90;2.30;;;;;;;19.82;42.53;98106.83;106164;1283;22548;-86
2022/05/26 12:12:22;;;;;;;7.20;2.40;;;;;;;19.73;42.57;98106.85;105944;1282;24344;-87
2022/05/26 12:14:51;;;;;;;4.90;2.60;;;;;;;19.68;42.96;98109.14;105732;1282;22620;-87
2022/05/26 12:17:35;;;;;;;8.00;2.20;;;;;;;19.66;43.43;98107.30;106126;1283;22934;-87
2022/05/26 12:20:10;;;;;;;4.10;1.80;;;;;;;19.68;43.56;98107.42;106941;1283;22557;-87
2022/05/26 12:22:51;;;;;;;7.20;2.70;;;;;;;19.65;43.35;98110.39;106008;1282;24225;-88
2022/05/26 12:25:41;;;;;;;3.90;2.20;;;;;;;19.63;43.11;98104.86;105979;1281;24289;-86
2022/05/26 12:28:13;;;;;;;6.40;2.30;;;;;;;19.63;43.24;98113.42;106077;1281;22547;-86
2022/05/26 12:31:02;;;;;;;7.80;2.70;;;;;;;19.64;43.39;98105.75;105922;1281;22703;-86
2022/05/26 12:34:02;;;;;;;5.00;2.20;;;;;;;19.62;43.59;98108.34;106047;1281;22563;-85
2022/05/26 12:36:33;;;;;;;5.70;2.60;;;;;;;19.58;43.09;98102.53;106147;1281;24364;-88